sensor_id;sensor_type;location;lat;lon;timestamp;pressure;altitude;pressure_sealevel;temperature;humidity
21902;BME280;11115;46.038;14.612;2022-09-02T00:02:10;98624.03;;;14.77;100.00
21902;BME280;11115;46.038;14.612;2022-09-02T00:04:40;98608.16;;;14.77;100.00
21902;BME280;11115;46.038;14.612;2022-09-02T00:07:16;98606.72;;;15.01;100.00
21902;BME280;11115;46.038;14.612;2022-09-02T00:09:47;98602.44;;;15.03;100.00
21902;BME280;11115;46.038;14.612;2022-09-02T00:12:30;98598.44;;;14.92;100.00
21902;BME280;11115;46.038;14.612;2022-09-02T00:15:12;98592.09;;;14.74;100.00
21902;BME280;11115;46.038;14.612;2022-09-02T00:17:47;98594.44;;;14.64;100.00
21902;BME280;11115;46.038;14.612;2022-09-02T00:20:20;98587.22;;;14.63;100.00
21902;BME280;11115;46.038;14.612;2022-09-02T00:22:55;98600.19;;;14.58;100.00
21902;BME280;11115;46.038;14.612;2022-09-02T00:25:28;98582.00;;;14.61;100.00
21902;BME280;11115;46.038;14.612;2022-09-02T00:28:14;98595.97;;;14.91;100.00
21902;BME280;11115;46.038;14.612;2022-09-02T00:30:52;98595.53;;;14.80;100.00
21902;BME280;11115;46.038;14.612;2022-09-02T00:33:32;98583.19;;;14.34;100.00
21902;BME280;11115;46.038;14.612;2022-09-02T00:36:03;98594.00;;;14.44;100.00
21902;BME280;11115;46.038;14.612;2022-09-02T00:38:34;98599.91;;;14.51;100.00
21902;BME280;11115;46.038;14.612;2022-09-02T00:41:08;98595.44;;;14.59;100.00
21902;BME280;11115;46.038;14.612;2022-09-02T00:43:59;98586.53;;;14.74;100.00
21902;BME280;11115;46.038;14.612;2022-09-02T00:46:32;98594.50;;;14.93;100.00
21902;BME280;11115;46.038;14.612;2022-09-02T00:49:13;98593.94;;;15.00;100.00
21902;BME280;11115;46.038;14.612;2022-09-02T00:51:58;98594.63;;;14.97;100.00
21902;BME280;11115;46.038;14.612;2022-09-02T00:54:51;98594.97;;;14.95;100.00
21902;BME280;11115;46.038;14.612;2022-09-02T00:57:38;98593.63;;;15.01;100.00
21902;BME280;11115;46.038;14.612;2022-09-02T01:00:30;98596.25;;;14.98;100.00
21902;BME280;11115;46.038;14.612;2022-09-02T01:03:18;98599.25;;;14.93;100.00
21902;BME280;11115;46.038;14.612;2022-09-02T01:05:49;98598.72;;;14.99;100.00
21902;BME280;11115;46.038;14.612;2022-09-02T01:08:28;98579.97;;;14.79;100.00
21902;BME280;11115;46.038;14.612;2022-09-02T01:11:04;98593.53;;;14.89;100.00
21902;BME280;11115;46.038;14.612;2022-09-02T01:13:43;98603.72;;;14.85;100.00
21902;BME280;11115;46.038;14.612;2022-09-02T01:16:54;98600.28;;;14.79;100.00
21902;BME280;11115;46.038;14.612;2022-09-02T01:19:23;98598.63;;;14.87;100.00
21902;BME280;11115;46.038;14.612;2022-09-02T01:21:56;98595.63;;;14.92;100.00
21902;BME280;11115;46.038;14.612;2022-09-02T01:24:34;98604.75;;;15.01;100.00
21902;BME280;11115;46.038;14.612;2022-09-02T01:27:07;98599.91;;;14.90;100.00
21902;BME280;11115;46.038;14.612;2022-09-02T01:29:37;98600.88;;;14.94;100.00
21902;BME280;11115;46.038;14.612;2022-09-02T01:32:10;98604.81;;;14.93;100.00
21902;BME280;11115;46.038;14.612;2022-09-02T01:34:47;98596.47;;;14.84;100.00
21902;BME280;11115;46.038;14.612;2022-09-02T01:37:20;98605.47;;;14.90;100.00
21902;BME280;11115;46.038;14.612;2022-09-02T01:39:54;98600.88;;;14.94;100.00
21902;BME280;11115;46.038;14.612;2022-09-02T01:42:35;98599.25;;;14.84;100.00
21902;BME280;11115;46.038;14.612;2022-09-02T01:45:16;98604.84;;;14.84;100.00
21902;BME280;11115;46.038;14.612;2022-09-02T01:47:46;98600.13;;;14.76;100.00
21902;BME280;11115;46.038;14.612;2022-09-02T01:50:18;98561.94;;;14.47;100.00
21902;BME280;11115;46.038;14.612;2022-09-02T01:52:59;98600.22;;;14.50;100.00
21902;BME280;11115;46.038;14.612;2022-09-02T01:55:35;98600.00;;;14.64;100.00
21902;BME280;11115;46.038;14.612;2022-09-02T01:58:09;98598.16;;;14.76;100.00
21902;BME280;11115;46.038;14.612;2022-09-02T02:00:47;98584.69;;;14.49;100.00
21902;BME280;11115;46.038;14.612;2022-09-02T02:03:22;98599.50;;;14.62;100.00
21902;BME280;11115;46.038;14.612;2022-09-02T02:05:59;98604.69;;;14.80;100.00
21902;BME280;11115;46.038;14.612;2022-09-02T02:08:31;98601.41;;;14.87;100.00
21902;BME280;11115;46.038;14.612;2022-09-02T02:11:17;98595.16;;;14.90;100.00
21902;BME280;11115;46.038;14.612;2022-09-02T02:13:51;98580.63;;;14.76;100.00
21902;BME280;11115;46.038;14.612;2022-09-02T02:16:21;98591.16;;;14.70;100.00
21902;BME280;11115;46.038;14.612;2022-09-02T02:18:53;98586.88;;;14.73;100.00
21902;BME280;11115;46.038;14.612;2022-09-02T02:21:36;98583.41;;;14.76;100.00
21902;BME280;11115;46.038;14.612;2022-09-02T02:24:06;98566.91;;;14.71;100.00
21902;BME280;11115;46.038;14.612;2022-09-02T02:26:36;98585.31;;;14.93;100.00
21902;BME280;11115;46.038;14.612;2022-09-02T02:29:21;98581.66;;;14.71;100.00
21902;BME280;11115;46.038;14.612;2022-09-02T02:31:59;98571.66;;;14.70;100.00
21902;BME280;11115;46.038;14.612;2022-09-02T02:34:39;98576.97;;;14.93;100.00
21902;BME280;11115;46.038;14.612;2022-09-02T02:37:13;98578.59;;;14.94;100.00
21902;BME280;11115;46.038;14.612;2022-09-02T02:39:49;98581.38;;;14.94;100.00
21902;BME280;11115;46.038;14.612;2022-09-02T02:42:24;98583.34;;;14.93;100.00
21902;BME280;11115;46.038;14.612;2022-09-02T02:44:52;98577.63;;;14.90;100.00
21902;BME280;11115;46.038;14.612;2022-09-02T02:47:26;98580.66;;;15.05;100.00
21902;BME280;11115;46.038;14.612;2022-09-02T02:49:56;98574.31;;;14.96;100.00
21902;BME280;11115;46.038;14.612;2022-09-02T02:52:31;98585.44;;;14.96;100.00
21902;BME280;11115;46.038;14.612;2022-09-02T02:55:02;98578.09;;;14.92;100.00
21902;BME280;11115;46.038;14.612;2022-09-02T02:57:37;98585.94;;;14.98;100.00
21902;BME280;11115;46.038;14.612;2022-09-02T03:00:17;98584.31;;;14.97;100.00
21902;BME280;11115;46.038;14.612;2022-09-02T03:02:49;98557.47;;;14.84;100.00
21902;BME280;11115;46.038;14.612;2022-09-02T03:05:21;98580.97;;;15.04;100.00
21902;BME280;11115;46.038;14.612;2022-09-02T03:07:57;98580.00;;;15.08;100.00
21902;BME280;11115;46.038;14.612;2022-09-02T03:10:35;98581.31;;;15.02;100.00
21902;BME280;11115;46.038;14.612;2022-09-02T03:13:10;98587.63;;;14.91;100.00
21902;BME280;11115;46.038;14.612;2022-09-02T03:15:50;98566.84;;;14.79;100.00
21902;BME280;11115;46.038;14.612;2022-09-02T03:18:22;98588.25;;;14.96;100.00
21902;BME280;11115;46.038;14.612;2022-09-02T03:20:55;98588.38;;;14.70;100.00
21902;BME280;11115;46.038;14.612;2022-09-02T03:23:44;98597.81;;;14.86;100.00
21902;BME280;11115;46.038;14.612;2022-09-02T03:26:19;98600.53;;;14.95;100.00
21902;BME280;11115;46.038;14.612;2022-09-02T03:28:54;98589.50;;;15.07;100.00
21902;BME280;11115;46.038;14.612;2022-09-02T03:31:32;98585.59;;;15.00;100.00
21902;BME280;11115;46.038;14.612;2022-09-02T03:34:04;98589.88;;;14.97;100.00
21902;BME280;11115;46.038;14.612;2022-09-02T03:36:41;98592.31;;;14.99;100.00
21902;BME280;11115;46.038;14.612;2022-09-02T03:39:26;98590.09;;;14.83;100.00
21902;BME280;11115;46.038;14.612;2022-09-02T03:41:56;98582.66;;;14.96;100.00
21902;BME280;11115;46.038;14.612;2022-09-02T03:44:28;98577.66;;;14.81;100.00
21902;BME280;11115;46.038;14.612;2022-09-02T03:46:59;98582.72;;;14.87;100.00
21902;BME280;11115;46.038;14.612;2022-09-02T03:49:33;98578.72;;;14.68;100.00
21902;BME280;11115;46.038;14.612;2022-09-02T03:52:03;98587.56;;;14.70;100.00
21902;BME280;11115;46.038;14.612;2022-09-02T03:54:35;98584.63;;;14.66;100.00
21902;BME280;11115;46.038;14.612;2022-09-02T03:57:16;98587.41;;;14.66;100.00
21902;BME280;11115;46.038;14.612;2022-09-02T03:59:56;98589.47;;;14.78;100.00
21902;BME280;11115;46.038;14.612;2022-09-02T04:02:30;98582.75;;;14.79;100.00
21902;BME280;11115;46.038;14.612;2022-09-02T04:05:06;98584.34;;;14.88;100.00
21902;BME280;11115;46.038;14.612;2022-09-02T04:07:47;98584.22;;;14.76;100.00
21902;BME280;11115;46.038;14.612;2022-09-02T04:10:31;98575.44;;;14.66;100.00
21902;BME280;11115;46.038;14.612;2022-09-02T04:13:17;98568.22;;;14.65;100.00
21902;BME280;11115;46.038;14.612;2022-09-02T04:15:50;98544.03;;;14.56;100.00
21902;BME280;11115;46.038;14.612;2022-09-02T04:18:32;98578.47;;;14.81;100.00
21902;BME280;11115;46.038;14.612;2022-09-02T04:21:13;98571.28;;;14.80;100.00
21902;BME280;11115;46.038;14.612;2022-09-02T04:23:48;98580.91;;;14.92;100.00
21902;BME280;11115;46.038;14.612;2022-09-02T04:26:21;98581.94;;;14.78;100.00
21902;BME280;11115;46.038;14.612;2022-09-02T04:29:05;98576.47;;;14.91;100.00
21902;BME280;11115;46.038;14.612;2022-09-02T04:31:45;98551.78;;;14.80;100.00
21902;BME280;11115;46.038;14.612;2022-09-02T04:34:14;98579.41;;;14.94;100.00
21902;BME280;11115;46.038;14.612;2022-09-02T04:36:53;98582.00;;;14.99;100.00
21902;BME280;11115;46.038;14.612;2022-09-02T04:39:26;98570.91;;;14.91;100.00
21902;BME280;11115;46.038;14.612;2022-09-02T04:41:57;98572.88;;;14.90;100.00
21902;BME280;11115;46.038;14.612;2022-09-02T04:44:34;98576.13;;;14.92;100.00
21902;BME280;11115;46.038;14.612;2022-09-02T04:47:14;98575.94;;;14.97;100.00
21902;BME280;11115;46.038;14.612;2022-09-02T04:49:53;98577.19;;;14.79;100.00
21902;BME280;11115;46.038;14.612;2022-09-02T04:52:37;98585.72;;;14.74;100.00
21902;BME280;11115;46.038;14.612;2022-09-02T04:55:11;98588.94;;;14.84;100.00
21902;BME280;11115;46.038;14.612;2022-09-02T04:57:52;98584.75;;;14.70;100.00
21902;BME280;11115;46.038;14.612;2022-09-02T05:00:27;98579.19;;;14.70;100.00
21902;BME280;11115;46.038;14.612;2022-09-02T05:03:09;98575.75;;;14.64;100.00
21902;BME280;11115;46.038;14.612;2022-09-02T05:05:45;98582.00;;;14.61;100.00
21902;BME280;11115;46.038;14.612;2022-09-02T05:08:25;98576.75;;;14.68;100.00
21902;BME280;11115;46.038;14.612;2022-09-02T05:11:09;98589.38;;;14.66;100.00
21902;BME280;11115;46.038;14.612;2022-09-02T05:13:55;98581.84;;;14.66;100.00
21902;BME280;11115;46.038;14.612;2022-09-02T05:16:36;98585.09;;;14.68;100.00
21902;BME280;11115;46.038;14.612;2022-09-02T05:19:24;98574.66;;;14.56;100.00
21902;BME280;11115;46.038;14.612;2022-09-02T05:22:10;98589.31;;;14.74;100.00
21902;BME280;11115;46.038;14.612;2022-09-02T05:24:47;98582.13;;;14.65;100.00
21902;BME280;11115;46.038;14.612;2022-09-02T05:27:22;98589.66;;;14.73;100.00
21902;BME280;11115;46.038;14.612;2022-09-02T05:29:56;98591.97;;;14.71;100.00
21902;BME280;11115;46.038;14.612;2022-09-02T05:32:33;98594.59;;;14.67;100.00
21902;BME280;11115;46.038;14.612;2022-09-02T05:35:07;98596.88;;;14.74;100.00
21902;BME280;11115;46.038;14.612;2022-09-02T05:37:49;98596.66;;;14.79;100.00
21902;BME280;11115;46.038;14.612;2022-09-02T05:40:30;98584.75;;;14.70;100.00
21902;BME280;11115;46.038;14.612;2022-09-02T05:43:09;98593.66;;;14.54;100.00
21902;BME280;11115;46.038;14.612;2022-09-02T05:45:47;98583.00;;;14.56;100.00
21902;BME280;11115;46.038;14.612;2022-09-02T05:48:22;98589.03;;;14.67;100.00
21902;BME280;11115;46.038;14.612;2022-09-02T05:51:11;98589.28;;;14.83;100.00
21902;BME280;11115;46.038;14.612;2022-09-02T05:53:46;98578.25;;;14.95;100.00
21902;BME280;11115;46.038;14.612;2022-09-02T05:56:16;98578.31;;;14.78;100.00
21902;BME280;11115;46.038;14.612;2022-09-02T05:58:48;98594.38;;;14.81;100.00
21902;BME280;11115;46.038;14.612;2022-09-02T06:01:22;98593.38;;;14.85;100.00
21902;BME280;11115;46.038;14.612;2022-09-02T06:04:05;98597.41;;;14.97;100.00
21902;BME280;11115;46.038;14.612;2022-09-02T06:06:49;98592.28;;;15.07;100.00
21902;BME280;11115;46.038;14.612;2022-09-02T06:09:23;98596.16;;;15.15;100.00
21902;BME280;11115;46.038;14.612;2022-09-02T06:11:55;98576.53;;;15.11;100.00
21902;BME280;11115;46.038;14.612;2022-09-02T06:14:34;98592.00;;;15.30;100.00
21902;BME280;11115;46.038;14.612;2022-09-02T06:17:22;98576.78;;;15.27;100.00
21902;BME280;11115;46.038;14.612;2022-09-02T06:20:10;98588.31;;;15.38;100.00
21902;BME280;11115;46.038;14.612;2022-09-02T06:22:44;98585.66;;;15.41;100.00
21902;BME280;11115;46.038;14.612;2022-09-02T06:25:25;98561.97;;;15.56;100.00
21902;BME280;11115;46.038;14.612;2022-09-02T06:28:08;98570.91;;;15.41;100.00
21902;BME280;11115;46.038;14.612;2022-09-02T06:30:45;98569.97;;;15.66;100.00
21902;BME280;11115;46.038;14.612;2022-09-02T06:33:20;98569.66;;;15.80;100.00
21902;BME280;11115;46.038;14.612;2022-09-02T06:35:53;98572.56;;;16.04;100.00
21902;BME280;11115;46.038;14.612;2022-09-02T06:38:25;98571.97;;;16.32;100.00
21902;BME280;11115;46.038;14.612;2022-09-02T06:41:00;98568.84;;;16.00;100.00
21902;BME280;11115;46.038;14.612;2022-09-02T06:43:41;98575.09;;;16.30;100.00
21902;BME280;11115;46.038;14.612;2022-09-02T06:46:35;98568.63;;;16.51;100.00
21902;BME280;11115;46.038;14.612;2022-09-02T06:49:25;98573.28;;;16.47;100.00
21902;BME280;11115;46.038;14.612;2022-09-02T06:51:59;98570.78;;;16.21;100.00
21902;BME280;11115;46.038;14.612;2022-09-02T06:54:36;98581.19;;;16.45;100.00
21902;BME280;11115;46.038;14.612;2022-09-02T06:57:14;98572.91;;;16.36;100.00
21902;BME280;11115;46.038;14.612;2022-09-02T06:59:58;98580.13;;;16.04;100.00
21902;BME280;11115;46.038;14.612;2022-09-02T07:02:36;98588.06;;;16.14;100.00
21902;BME280;11115;46.038;14.612;2022-09-02T07:05:06;98583.59;;;15.59;100.00
21902;BME280;11115;46.038;14.612;2022-09-02T07:07:47;98571.25;;;15.39;100.00
21902;BME280;11115;46.038;14.612;2022-09-02T07:10:26;98584.84;;;15.41;100.00
21902;BME280;11115;46.038;14.612;2022-09-02T07:12:55;98585.13;;;15.27;100.00
21902;BME280;11115;46.038;14.612;2022-09-02T07:15:34;98590.66;;;15.57;100.00
21902;BME280;11115;46.038;14.612;2022-09-02T07:18:11;98563.44;;;15.62;100.00
21902;BME280;11115;46.038;14.612;2022-09-02T07:20:58;98581.47;;;15.98;100.00
21902;BME280;11115;46.038;14.612;2022-09-02T07:23:29;98569.06;;;15.74;100.00
21902;BME280;11115;46.038;14.612;2022-09-02T07:26:17;98577.72;;;16.15;100.00
21902;BME280;11115;46.038;14.612;2022-09-02T07:28:51;98586.50;;;16.37;100.00
21902;BME280;11115;46.038;14.612;2022-09-02T07:31:23;98577.13;;;16.42;100.00
21902;BME280;11115;46.038;14.612;2022-09-02T07:34:10;98583.47;;;16.76;100.00
21902;BME280;11115;46.038;14.612;2022-09-02T07:36:55;98571.41;;;16.84;100.00
21902;BME280;11115;46.038;14.612;2022-09-02T07:39:41;98559.53;;;16.87;100.00
21902;BME280;11115;46.038;14.612;2022-09-02T07:42:27;98567.53;;;17.37;100.00
21902;BME280;11115;46.038;14.612;2022-09-02T07:44:57;98563.44;;;17.35;100.00
21902;BME280;11115;46.038;14.612;2022-09-02T07:47:31;98569.16;;;16.77;100.00
21902;BME280;11115;46.038;14.612;2022-09-02T07:50:05;98567.56;;;17.01;100.00
21902;BME280;11115;46.038;14.612;2022-09-02T07:52:52;98569.41;;;16.84;100.00
21902;BME280;11115;46.038;14.612;2022-09-02T07:55:30;98575.72;;;17.06;100.00
21902;BME280;11115;46.038;14.612;2022-09-02T07:58:35;98559.72;;;17.30;100.00
21902;BME280;11115;46.038;14.612;2022-09-02T08:01:07;98546.56;;;17.31;100.00
21902;BME280;11115;46.038;14.612;2022-09-02T08:03:52;98545.38;;;17.44;100.00
21902;BME280;11115;46.038;14.612;2022-09-02T08:06:25;98549.63;;;17.66;100.00
21902;BME280;11115;46.038;14.612;2022-09-02T08:09:03;98550.69;;;17.62;100.00
21902;BME280;11115;46.038;14.612;2022-09-02T08:11:34;98551.78;;;17.57;100.00
21902;BME280;11115;46.038;14.612;2022-09-02T08:14:12;98551.16;;;17.76;100.00
21902;BME280;11115;46.038;14.612;2022-09-02T08:16:56;98546.91;;;17.42;100.00
21902;BME280;11115;46.038;14.612;2022-09-02T08:19:33;98536.16;;;17.56;100.00
21902;BME280;11115;46.038;14.612;2022-09-02T08:22:04;98552.63;;;17.33;100.00
21902;BME280;11115;46.038;14.612;2022-09-02T08:24:34;98543.84;;;17.47;100.00
21902;BME280;11115;46.038;14.612;2022-09-02T08:27:07;98540.34;;;17.74;100.00
21902;BME280;11115;46.038;14.612;2022-09-02T08:29:36;98537.78;;;17.97;100.00
21902;BME280;11115;46.038;14.612;2022-09-02T08:32:07;98541.09;;;17.87;100.00
21902;BME280;11115;46.038;14.612;2022-09-02T08:34:45;98489.72;;;17.79;100.00
21902;BME280;11115;46.038;14.612;2022-09-02T08:37:16;98532.84;;;18.06;100.00
21902;BME280;11115;46.038;14.612;2022-09-02T08:40:07;98535.34;;;18.39;100.00
21902;BME280;11115;46.038;14.612;2022-09-02T08:42:54;98541.34;;;18.54;100.00
21902;BME280;11115;46.038;14.612;2022-09-02T08:45:42;98539.59;;;18.33;100.00
21902;BME280;11115;46.038;14.612;2022-09-02T08:51:41;98529.88;;;18.90;100.00
21902;BME280;11115;46.038;14.612;2022-09-02T08:54:41;98525.59;;;19.12;100.00
21902;BME280;11115;46.038;14.612;2022-09-02T08:57:20;98529.53;;;19.27;100.00
21902;BME280;11115;46.038;14.612;2022-09-02T08:59:54;98523.84;;;19.23;100.00
21902;BME280;11115;46.038;14.612;2022-09-02T09:02:37;98533.34;;;19.69;100.00
21902;BME280;11115;46.038;14.612;2022-09-02T09:05:29;98519.53;;;19.80;100.00
21902;BME280;11115;46.038;14.612;2022-09-02T09:11:08;98517.38;;;19.93;100.00
21902;BME280;11115;46.038;14.612;2022-09-02T09:14:06;98512.59;;;19.74;100.00
21902;BME280;11115;46.038;14.612;2022-09-02T09:17:00;98517.03;;;19.94;100.00
21902;BME280;11115;46.038;14.612;2022-09-02T09:19:54;98508.44;;;20.07;100.00
21902;BME280;11115;46.038;14.612;2022-09-02T09:22:35;98501.66;;;20.50;100.00
21902;BME280;11115;46.038;14.612;2022-09-02T09:25:10;98503.28;;;20.51;100.00
21902;BME280;11115;46.038;14.612;2022-09-02T09:27:47;98501.41;;;20.39;100.00
21902;BME280;11115;46.038;14.612;2022-09-02T09:30:18;98493.88;;;20.89;100.00
21902;BME280;11115;46.038;14.612;2022-09-02T09:32:58;98492.25;;;20.42;100.00
21902;BME280;11115;46.038;14.612;2022-09-02T09:35:52;98491.66;;;20.10;100.00
21902;BME280;11115;46.038;14.612;2022-09-02T09:38:32;98482.88;;;19.92;100.00
21902;BME280;11115;46.038;14.612;2022-09-02T09:41:21;98487.38;;;19.97;100.00
21902;BME280;11115;46.038;14.612;2022-09-02T09:43:56;98481.03;;;20.42;100.00
21902;BME280;11115;46.038;14.612;2022-09-02T09:46:30;98486.78;;;20.72;100.00
21902;BME280;11115;46.038;14.612;2022-09-02T09:49:09;98478.13;;;20.39;100.00
21902;BME280;11115;46.038;14.612;2022-09-02T09:52:01;98480.13;;;20.38;100.00
21902;BME280;11115;46.038;14.612;2022-09-02T09:54:36;98453.00;;;20.95;100.00
21902;BME280;11115;46.038;14.612;2022-09-02T09:57:15;98469.66;;;21.34;100.00
21902;BME280;11115;46.038;14.612;2022-09-02T09:59:49;98453.31;;;21.16;100.00
21902;BME280;11115;46.038;14.612;2022-09-02T10:02:46;98459.47;;;21.86;100.00
21902;BME280;11115;46.038;14.612;2022-09-02T10:05:28;98457.72;;;21.74;100.00
21902;BME280;11115;46.038;14.612;2022-09-02T10:08:24;98451.75;;;21.45;100.00
21902;BME280;11115;46.038;14.612;2022-09-02T10:11:04;98443.50;;;21.60;100.00
21902;BME280;11115;46.038;14.612;2022-09-02T10:13:37;98445.06;;;21.94;100.00
21902;BME280;11115;46.038;14.612;2022-09-02T10:20:16;98436.00;;;22.08;100.00
21902;BME280;11115;46.038;14.612;2022-09-02T10:26:24;98433.84;;;23.41;100.00
21902;BME280;11115;46.038;14.612;2022-09-02T10:32:26;98411.59;;;23.29;91.00
21902;BME280;11115;46.038;14.612;2022-09-02T10:46:58;98413.69;;;23.39;100.00
21902;BME280;11115;46.038;14.612;2022-09-02T10:49:41;98406.63;;;23.05;93.90
21902;BME280;11115;46.038;14.612;2022-09-02T10:52:20;98415.22;;;23.22;89.67
21902;BME280;11115;46.038;14.612;2022-09-02T10:55:35;98402.09;;;22.86;79.95
21902;BME280;11115;46.038;14.612;2022-09-02T11:01:43;98394.78;;;23.54;75.01
21902;BME280;11115;46.038;14.612;2022-09-02T11:04:40;98396.88;;;23.64;74.39
21902;BME280;11115;46.038;14.612;2022-09-02T11:07:18;98391.69;;;23.87;74.96
21902;BME280;11115;46.038;14.612;2022-09-02T11:09:59;98390.31;;;23.42;74.41
21902;BME280;11115;46.038;14.612;2022-09-02T11:12:43;98386.16;;;24.34;68.18
21902;BME280;11115;46.038;14.612;2022-09-02T11:15:22;98388.00;;;23.66;69.32
21902;BME280;11115;46.038;14.612;2022-09-02T11:18:37;98384.06;;;23.99;70.46
21902;BME280;11115;46.038;14.612;2022-09-02T11:21:24;98391.25;;;23.75;70.07
21902;BME280;11115;46.038;14.612;2022-09-02T11:27:38;98378.00;;;24.00;72.38
21902;BME280;11115;46.038;14.612;2022-09-02T11:30:21;98383.56;;;23.65;68.86
21902;BME280;11115;46.038;14.612;2022-09-02T11:36:24;98377.63;;;24.83;77.28
21902;BME280;11115;46.038;14.612;2022-09-02T11:39:09;98374.00;;;24.79;64.80
21902;BME280;11115;46.038;14.612;2022-09-02T11:48:38;98372.78;;;25.09;61.24
21902;BME280;11115;46.038;14.612;2022-09-02T11:54:21;98369.81;;;25.37;63.01
21902;BME280;11115;46.038;14.612;2022-09-02T11:57:01;98371.03;;;25.40;61.32
21902;BME280;11115;46.038;14.612;2022-09-02T12:02:48;98371.97;;;25.08;63.65
21902;BME280;11115;46.038;14.612;2022-09-02T12:05:50;98367.50;;;25.98;62.88
21902;BME280;11115;46.038;14.612;2022-09-02T12:11:48;98367.88;;;26.08;61.41
21902;BME280;11115;46.038;14.612;2022-09-02T12:17:31;98373.13;;;25.22;60.00
21902;BME280;11115;46.038;14.612;2022-09-02T12:32:04;98336.28;;;26.99;67.01
21902;BME280;11115;46.038;14.612;2022-09-02T12:37:52;98352.63;;;25.87;58.27
21902;BME280;11115;46.038;14.612;2022-09-02T12:40:33;98354.88;;;25.37;58.17
21902;BME280;11115;46.038;14.612;2022-09-02T12:43:22;98350.38;;;25.50;55.93
21902;BME280;11115;46.038;14.612;2022-09-02T12:46:15;98353.56;;;26.22;55.90
21902;BME280;11115;46.038;14.612;2022-09-02T12:49:36;98344.19;;;27.18;56.02
21902;BME280;11115;46.038;14.612;2022-09-02T12:52:40;98343.88;;;27.12;52.43
21902;BME280;11115;46.038;14.612;2022-09-02T12:55:25;98329.97;;;26.84;52.94
21902;BME280;11115;46.038;14.612;2022-09-02T12:58:20;98332.09;;;28.05;51.36
21902;BME280;11115;46.038;14.612;2022-09-02T13:01:08;98327.97;;;30.51;47.65
21902;BME280;11115;46.038;14.612;2022-09-02T13:07:10;98329.00;;;27.01;52.54
21902;BME280;11115;46.038;14.612;2022-09-02T13:13:24;98322.75;;;26.27;59.43
21902;BME280;11115;46.038;14.612;2022-09-02T13:16:10;98326.59;;;26.03;54.98
21902;BME280;11115;46.038;14.612;2022-09-02T13:22:24;98319.78;;;25.13;55.77
21902;BME280;11115;46.038;14.612;2022-09-02T13:25:11;98322.22;;;24.97;59.31
21902;BME280;11115;46.038;14.612;2022-09-02T13:31:24;98322.72;;;24.24;61.81
21902;BME280;11115;46.038;14.612;2022-09-02T13:34:11;98320.28;;;24.01;63.43
21902;BME280;11115;46.038;14.612;2022-09-02T13:36:43;98329.00;;;23.43;63.45
21902;BME280;11115;46.038;14.612;2022-09-02T13:39:26;98322.63;;;23.64;63.95
21902;BME280;11115;46.038;14.612;2022-09-02T13:42:13;98316.22;;;23.88;69.19
21902;BME280;11115;46.038;14.612;2022-09-02T13:44:46;98320.69;;;24.03;68.99
21902;BME280;11115;46.038;14.612;2022-09-02T13:47:28;98325.91;;;23.80;69.18
21902;BME280;11115;46.038;14.612;2022-09-02T13:49:59;98323.91;;;24.27;69.06
21902;BME280;11115;46.038;14.612;2022-09-02T13:52:36;98314.97;;;26.42;59.75
21902;BME280;11115;46.038;14.612;2022-09-02T13:55:39;98320.66;;;25.87;54.30
21902;BME280;11115;46.038;14.612;2022-09-02T13:58:33;98326.16;;;28.70;48.61
21902;BME280;11115;46.038;14.612;2022-09-02T14:01:35;98324.63;;;27.27;50.54
21902;BME280;11115;46.038;14.612;2022-09-02T14:04:12;98324.72;;;26.38;56.27
21902;BME280;11115;46.038;14.612;2022-09-02T14:06:49;98318.91;;;26.00;54.67
21902;BME280;11115;46.038;14.612;2022-09-02T14:09:31;98323.50;;;24.67;57.19
21902;BME280;11115;46.038;14.612;2022-09-02T14:12:08;98312.97;;;24.82;58.75
21902;BME280;11115;46.038;14.612;2022-09-02T14:14:43;98322.34;;;24.50;59.44
21902;BME280;11115;46.038;14.612;2022-09-02T14:17:26;98321.09;;;24.73;60.49
21902;BME280;11115;46.038;14.612;2022-09-02T14:22:56;98310.09;;;24.96;58.58
21902;BME280;11115;46.038;14.612;2022-09-02T14:25:47;98305.31;;;24.75;59.35
21902;BME280;11115;46.038;14.612;2022-09-02T14:28:32;98295.63;;;24.62;59.91
21902;BME280;11115;46.038;14.612;2022-09-02T14:31:24;98302.53;;;23.97;64.84
21902;BME280;11115;46.038;14.612;2022-09-02T14:33:59;98302.50;;;24.65;61.60
21902;BME280;11115;46.038;14.612;2022-09-02T14:36:38;98312.75;;;25.50;59.68
21902;BME280;11115;46.038;14.612;2022-09-02T14:39:15;98302.47;;;25.77;55.89
21902;BME280;11115;46.038;14.612;2022-09-02T14:41:55;98309.31;;;24.99;57.29
21902;BME280;11115;46.038;14.612;2022-09-02T14:44:31;98310.63;;;26.27;56.69
21902;BME280;11115;46.038;14.612;2022-09-02T14:47:04;98312.34;;;28.68;47.21
21902;BME280;11115;46.038;14.612;2022-09-02T14:49:55;98314.63;;;29.96;42.77
21902;BME280;11115;46.038;14.612;2022-09-02T14:52:26;98311.69;;;27.53;46.72
21902;BME280;11115;46.038;14.612;2022-09-02T14:54:58;98314.56;;;27.84;45.55
21902;BME280;11115;46.038;14.612;2022-09-02T14:57:34;98294.53;;;30.36;43.78
21902;BME280;11115;46.038;14.612;2022-09-02T15:00:14;98288.41;;;31.40;40.02
21902;BME280;11115;46.038;14.612;2022-09-02T15:02:56;98297.53;;;29.96;41.38
21902;BME280;11115;46.038;14.612;2022-09-02T15:05:29;98301.28;;;28.51;44.51
21902;BME280;11115;46.038;14.612;2022-09-02T15:08:00;98302.91;;;26.27;48.83
21902;BME280;11115;46.038;14.612;2022-09-02T15:10:37;98287.06;;;25.08;52.10
21902;BME280;11115;46.038;14.612;2022-09-02T15:13:32;98304.47;;;24.86;54.67
21902;BME280;11115;46.038;14.612;2022-09-02T15:16:06;98314.66;;;24.40;56.99
21902;BME280;11115;46.038;14.612;2022-09-02T15:18:43;98315.47;;;24.37;61.00